Galesburg, IL (61401)

5:42 AM CST on February 11, 2016 (GMT -0600)
North-Central Galesburg | | Change Station
CLOSE
Current Station
Personal Weather Station
Location: Galesburg, IL
Elevation: 760 ft
Nearby Weather Stations

Elev 760 ft 40.96 °N, 90.37 °W | Updated 1 second ago

Clear
Clear
8.1 °F
Feels Like 8 °F
N
0.0
Wind Variable Wind from NE
Gusts 0.0 mph

Today
High -- | Low -- °F
--% Chance of Precip.
Yesterday
High -- | Low -- °F
Precip. -- in
Pressure 30.28 in
Visibility 10.0 miles
Clouds Clear
Windchill 8 °F
Dew Point 4 °F
Humidity 84%
Rainfall 0.00 in
Snow Depth Not available.
7:01 AM 5:30 PM
Waxing Crescent, 11% visible
METAR KGBG 111135Z AUTO 00000KT 10SM CLR M15/M18 A3028 RMK AO2 T11551177
Pressure 30.28 in
Visibility 10.0 miles
Clouds Clear
Windchill 8 °F
Dew Point 4 °F
Humidity 84%
Rainfall 0.00 in
Snow Depth Not available.
7:01 AM 5:30 PM
Waxing Crescent, 11% visible
METAR KGBG 111135Z AUTO 00000KT 10SM CLR M15/M18 A3028 RMK AO2 T11551177

10-Day Weather Forecast

Almanac

Astronomy

Feb. 11, 2016 Rise Set
Actual Time
Civil Twilight
Nautical Twilight
Astronomical Twilight
Moon
Length of Visible Light
Length of Day
Tomorrow will be .
, % of the Moon is Illuminated

Today's Extremes

State Highs State Lows

Community

WunderPhotos

Upload Photos

1,892,030 photos uploaded!

WunderBlog® & News

Nearby

Air Quality

  Air Quality AQ Index Pollutant
Not available.

Snow Depth

Station Depth Elevation

Earthquake Activity

City Distance Mag. Time & Date
Minimum magnitude displayed is 2.5.

Coastal Water Temperatures

Place Temperature

Stations

Nearby Weather Stations

Station Location Temp. Windchill Dew Point Humidity Wind Precip. Elev Updated Type
                   

Watches & Warnings

There are currently no watches in effect.